Time;durP1;ratioP1;P1;durP2;ratioP2;P2;SDS_P1;SDS_P2;PMS_P1;PMS_P2;Temp;Humidity;BMP_temperature;BMP_pressure;BME280_temperature;BME280_humidity;BME280_pressure;Samples;Min_cycle;Max_cycle;Signal;HPM_P1;HPM_P2
2021/12/15 00:01:16;;;;;;;6.75;5.00;;;5.60;99.90;;;;;;503022;236;27894;-76
2021/12/15 00:03:19;;;;;;;8.68;5.75;;;5.60;99.90;;;;;;503084;236;27977;-75
2021/12/15 00:05:23;;;;;;;7.78;5.78;;;5.60;99.90;;;;;;502991;236;27509;-76
2021/12/15 00:07:20;;;;;;;5.45;4.78;;;5.70;99.90;;;;;;502831;236;27518;-76
2021/12/15 00:09:21;;;;;;;7.68;4.90;;;5.60;99.90;;;;;;503105;236;27469;-76
2021/12/15 00:11:22;;;;;;;7.37;5.60;;;5.60;99.90;;;;;;503075;236;27451;-75
2021/12/15 00:13:23;;;;;;;6.75;5.35;;;5.60;99.90;;;;;;503103;236;27517;-76
2021/12/15 00:15:27;;;;;;;6.80;4.90;;;5.60;99.90;;;;;;503099;236;27497;-76
2021/12/15 00:17:26;;;;;;;7.07;5.25;;;5.70;99.90;;;;;;502985;236;28006;-76
2021/12/15 00:19:27;;;;;;;6.90;4.93;;;5.70;99.90;;;;;;503099;236;27995;-75
2021/12/15 00:21:28;;;;;;;6.40;5.00;;;5.70;99.90;;;;;;503092;236;27440;-76
2021/12/15 00:23:30;;;;;;;6.07;4.90;;;5.60;99.90;;;;;;503088;236;27508;-76
2021/12/15 00:25:31;;;;;;;5.28;4.30;;;5.60;99.90;;;;;;503107;236;27509;-75
2021/12/15 00:27:32;;;;;;;5.68;4.53;;;5.50;99.90;;;;;;503107;236;27450;-75
2021/12/15 00:29:33;;;;;;;5.25;4.50;;;5.50;99.90;;;;;;503075;236;27564;-76
2021/12/15 00:31:35;;;;;;;5.90;4.85;;;5.50;99.90;;;;;;503102;236;27447;-75
2021/12/15 00:33:36;;;;;;;6.00;4.25;;;5.50;99.90;;;;;;503089;236;27941;-75
2021/12/15 00:35:37;;;;;;;4.37;3.97;;;5.50;99.90;;;;;;503097;236;27959;-76
2021/12/15 00:37:38;;;;;;;5.65;4.57;;;5.50;99.90;;;;;;503122;236;27974;-76
2021/12/15 00:39:40;;;;;;;4.40;4.00;;;5.50;99.90;;;;;;503069;236;27494;-76
2021/12/15 00:41:41;;;;;;;5.90;4.40;;;5.50;99.90;;;;;;503068;236;27527;-75
2021/12/15 00:43:42;;;;;;;4.68;4.00;;;5.50;99.90;;;;;;503044;236;27562;-76
2021/12/15 00:45:44;;;;;;;4.72;4.25;;;5.50;99.90;;;;;;503093;236;27481;-76
2021/12/15 00:47:45;;;;;;;5.80;4.70;;;5.50;99.90;;;;;;503115;236;27553;-75
2021/12/15 00:49:46;;;;;;;4.35;3.75;;;5.50;99.90;;;;;;503095;236;27506;-76
2021/12/15 00:51:47;;;;;;;4.57;4.18;;;5.50;99.90;;;;;;503079;236;28038;-75
2021/12/15 00:53:49;;;;;;;5.28;4.30;;;5.40;99.90;;;;;;503078;236;27996;-75
2021/12/15 00:55:50;;;;;;;5.10;4.20;;;5.40;99.90;;;;;;503077;236;28070;-76
2021/12/15 00:57:51;;;;;;;5.35;4.00;;;5.40;99.90;;;;;;503089;236;27521;-76
2021/12/15 00:59:52;;;;;;;5.05;4.55;;;5.50;99.90;;;;;;503091;236;27564;-76
2021/12/15 01:01:54;;;;;;;4.37;3.60;;;5.40;99.90;;;;;;503115;236;27470;-75
2021/12/15 01:03:55;;;;;;;4.78;4.00;;;5.40;99.90;;;;;;503113;236;27441;-75
2021/12/15 01:05:59;;;;;;;4.65;4.15;;;5.50;99.90;;;;;;503092;236;27485;-76
2021/12/15 01:07:58;;;;;;;5.05;3.80;;;5.40;99.90;;;;;;502870;236;27528;-76
2021/12/15 01:09:59;;;;;;;5.30;4.35;;;5.40;99.90;;;;;;503085;236;27560;-75
2021/12/15 01:12:20;;;;;;;4.60;3.85;;;5.40;99.90;;;;;;503104;236;28012;-76
2021/12/15 01:21:06;;;;;;;4.62;4.22;;;5.20;99.90;;;;;;503071;236;27535;-76
2021/12/15 01:23:07;;;;;;;5.22;4.20;;;5.10;99.90;;;;;;503063;236;27585;-76
2021/12/15 01:25:08;;;;;;;5.82;4.55;;;5.00;99.90;;;;;;503073;236;27551;-75
2021/12/15 01:27:10;;;;;;;5.32;4.30;;;5.00;99.90;;;;;;503097;236;27439;-75
2021/12/15 01:29:11;;;;;;;5.12;4.25;;;5.00;99.90;;;;;;503092;236;27929;-75
2021/12/15 01:31:12;;;;;;;6.37;5.20;;;5.00;99.90;;;;;;503047;236;27898;-75
2021/12/15 01:33:13;;;;;;;6.15;4.80;;;4.90;99.90;;;;;;503050;236;27896;-75
2021/12/15 01:35:15;;;;;;;6.53;5.10;;;4.90;99.90;;;;;;503078;236;27512;-75
2021/12/15 01:37:17;;;;;;;4.45;4.00;;;4.80;99.90;;;;;;503088;236;27553;-75
2021/12/15 01:39:17;;;;;;;5.50;4.37;;;4.80;99.90;;;;;;503020;236;27505;-75
2021/12/15 01:41:23;;;;;;;5.30;4.45;;;4.80;99.90;;;;;;503084;236;27526;-75
2021/12/15 01:43:29;;;;;;;5.95;4.37;;;4.80;99.90;;;;;;502962;236;27471;-75
2021/12/15 01:47:43;;;;;;;4.87;4.37;;;4.70;99.90;;;;;;503084;236;27492;-76
2021/12/15 01:49:44;;;;;;;5.72;4.43;;;4.70;99.90;;;;;;503052;236;27544;-75
2021/12/15 01:51:46;;;;;;;5.32;4.32;;;4.70;99.90;;;;;;503081;236;27984;-75
2021/12/15 01:53:47;;;;;;;4.78;3.97;;;4.60;99.90;;;;;;503036;236;28032;-75
2021/12/15 01:55:49;;;;;;;5.87;4.37;;;4.60;99.90;;;;;;503073;236;27904;-75
2021/12/15 01:57:49;;;;;;;5.93;4.37;;;4.50;99.90;;;;;;503064;236;27560;-75
2021/12/15 01:59:51;;;;;;;5.15;4.22;;;4.50;99.90;;;;;;503088;236;27468;-75
2021/12/15 02:01:52;;;;;;;4.50;4.07;;;4.50;99.90;;;;;;503064;236;27458;-75
2021/12/15 02:03:53;;;;;;;4.80;4.10;;;4.50;99.90;;;;;;503071;236;27481;-76
2021/12/15 02:05:54;;;;;;;6.00;4.15;;;4.40;99.90;;;;;;503092;236;27530;-76
2021/12/15 02:07:56;;;;;;;4.97;3.70;;;4.40;99.90;;;;;;503098;236;27477;-75
2021/12/15 02:11:58;;;;;;;4.32;3.83;;;4.40;99.90;;;;;;503088;236;27513;-76
2021/12/15 02:13:59;;;;;;;4.25;3.83;;;4.30;99.90;;;;;;503054;236;27951;-76
2021/12/15 02:16:01;;;;;;;4.05;3.60;;;4.30;99.90;;;;;;503070;236;27953;-75
2021/12/15 02:18:02;;;;;;;4.03;3.55;;;4.20;99.90;;;;;;503067;236;27940;-75
2021/12/15 02:20:03;;;;;;;4.45;3.87;;;4.20;99.90;;;;;;503053;236;28152;-75
2021/12/15 02:22:04;;;;;;;4.20;3.80;;;4.20;99.90;;;;;;503076;236;27532;-75
2021/12/15 02:24:06;;;;;;;3.72;3.42;;;4.10;99.90;;;;;;503038;236;27481;-76
2021/12/15 02:26:08;;;;;;;4.18;3.78;;;4.10;99.90;;;;;;503061;236;27522;-75
2021/12/15 02:28:08;;;;;;;4.25;3.75;;;4.10;99.90;;;;;;502996;236;27477;-75
2021/12/15 02:31:03;;;;;;;5.90;3.95;;;4.00;99.90;;;;;;503073;236;27478;-76
2021/12/15 02:32:18;;;;;;;4.72;4.20;;;4.00;99.90;;;;;;499282;236;27483;-75
2021/12/15 02:38:41;;;;;;;5.05;4.20;;;3.80;99.90;;;;;;503089;236;27441;-75
2021/12/15 02:40:43;;;;;;;4.87;3.97;;;3.90;99.90;;;;;;503059;236;27552;-75
2021/12/15 02:42:45;;;;;;;4.60;4.12;;;3.90;99.90;;;;;;503074;236;28052;-76
2021/12/15 02:44:46;;;;;;;4.43;4.03;;;3.80;99.90;;;;;;503052;236;27983;-75
2021/12/15 02:46:46;;;;;;;4.45;3.55;;;3.80;99.90;;;;;;503095;236;29113;-75
2021/12/15 02:48:49;;;;;;;4.45;3.87;;;3.90;99.90;;;;;;503114;236;28019;-75
2021/12/15 02:50:49;;;;;;;4.00;3.60;;;3.80;99.90;;;;;;503043;236;27452;-75
2021/12/15 02:52:50;;;;;;;4.22;3.58;;;3.80;99.90;;;;;;503129;236;27467;-75
2021/12/15 02:54:51;;;;;;;4.75;3.83;;;3.80;99.90;;;;;;503116;236;27442;-75
2021/12/15 02:56:53;;;;;;;3.67;3.35;;;3.70;99.90;;;;;;503136;236;27457;-75
2021/12/15 02:59:03;;;;;;;5.82;4.00;;;3.60;99.90;;;;;;503131;236;27522;-75
2021/12/15 03:01:01;;;;;;;4.22;3.33;;;3.60;99.90;;;;;;502356;236;27477;-75
2021/12/15 03:05:25;;;;;;;4.35;3.90;;;3.50;99.90;;;;;;503088;236;27990;-75
2021/12/15 03:16:16;;;;;;;5.60;4.40;;;3.40;99.90;;;;;;503096;236;27985;-75
2021/12/15 03:18:18;;;;;;;4.85;3.95;;;3.40;99.90;;;;;;503096;236;28028;-75
2021/12/15 03:20:19;;;;;;;4.35;3.87;;;3.40;99.90;;;;;;503092;236;29053;-75
2021/12/15 03:22:20;;;;;;;4.90;4.20;;;3.40;99.90;;;;;;503089;236;27465;-75
2021/12/15 03:24:23;;;;;;;4.60;3.70;;;3.40;99.90;;;;;;503127;236;27513;-75
2021/12/15 03:26:25;;;;;;;4.47;4.07;;;3.30;99.90;;;;;;502964;236;27446;-75
2021/12/15 03:35:45;;;;;;;4.30;3.22;;;3.20;99.90;;;;;;503066;236;27469;-75
2021/12/15 03:37:25;;;;;;;3.95;3.45;;;3.20;99.90;;;;;;501187;236;27478;-75
2021/12/15 03:39:25;;;;;;;4.28;3.65;;;3.10;99.90;;;;;;503004;236;27435;-75
2021/12/15 03:41:26;;;;;;;4.05;3.15;;;3.10;99.90;;;;;;503069;236;27508;-75
2021/12/15 03:43:28;;;;;;;3.35;3.05;;;3.10;99.90;;;;;;503077;236;27458;-76
2021/12/15 03:45:29;;;;;;;3.42;3.12;;;3.10;99.90;;;;;;503063;236;27480;-75
2021/12/15 03:47:30;;;;;;;3.10;2.70;;;3.10;99.90;;;;;;503108;236;27559;-75
2021/12/15 03:49:31;;;;;;;3.53;2.80;;;3.00;99.90;;;;;;503058;236;27554;-75
2021/12/15 03:51:32;;;;;;;3.55;3.10;;;3.00;99.90;;;;;;503057;236;27923;-75
2021/12/15 03:53:34;;;;;;;3.85;3.28;;;3.00;99.90;;;;;;503065;236;27940;-75
2021/12/15 03:55:35;;;;;;;3.85;3.45;;;2.90;99.90;;;;;;503061;236;28011;-75
2021/12/15 03:57:36;;;;;;;3.65;2.85;;;2.80;99.90;;;;;;503097;236;29045;-75
2021/12/15 03:59:42;;;;;;;3.08;2.78;;;2.70;99.90;;;;;;503085;236;27448;-76
2021/12/15 04:01:39;;;;;;;4.43;3.55;;;2.80;99.90;;;;;;502718;236;27570;-75
2021/12/15 04:03:40;;;;;;;4.22;3.20;;;2.70;99.90;;;;;;503090;236;27447;-75
2021/12/15 04:05:41;;;;;;;4.20;3.80;;;2.80;99.90;;;;;;503090;236;27481;-75
2021/12/15 04:07:42;;;;;;;3.67;3.20;;;2.80;99.90;;;;;;503085;236;27504;-75
2021/12/15 04:09:44;;;;;;;3.17;2.87;;;2.80;99.90;;;;;;503077;236;27473;-75
2021/12/15 04:11:45;;;;;;;3.90;3.22;;;2.80;99.90;;;;;;503065;236;27567;-75
2021/12/15 04:13:47;;;;;;;3.67;3.30;;;2.70;99.90;;;;;;503078;236;27584;-75
2021/12/15 04:15:54;;;;;;;3.35;2.92;;;2.70;99.90;;;;;;503068;236;27476;-75
2021/12/15 04:17:49;;;;;;;3.78;3.28;;;2.70;99.90;;;;;;502624;236;27535;-75
2021/12/15 04:19:50;;;;;;;2.80;2.60;;;2.70;99.90;;;;;;503090;236;27884;-75
2021/12/15 04:21:51;;;;;;;3.20;2.90;;;2.70;99.90;;;;;;503074;236;27964;-75
2021/12/15 04:23:53;;;;;;;3.42;3.12;;;2.70;99.90;;;;;;503087;236;27892;-75
2021/12/15 04:25:59;;;;;;;2.67;2.47;;;2.60;99.90;;;;;;503108;236;27909;-75
2021/12/15 04:27:58;;;;;;;3.45;2.70;;;2.60;99.90;;;;;;502925;236;27909;-75
2021/12/15 04:29:59;;;;;;;3.05;2.83;;;2.50;99.90;;;;;;503112;236;27553;-75
2021/12/15 04:32:01;;;;;;;3.05;2.85;;;2.50;99.90;;;;;;503109;236;27577;-75
2021/12/15 04:34:02;;;;;;;3.00;2.70;;;2.50;99.90;;;;;;503068;236;27581;-75
2021/12/15 04:36:03;;;;;;;3.42;3.12;;;2.50;99.90;;;;;;503095;236;27494;-75
2021/12/15 04:38:04;;;;;;;2.87;2.33;;;2.50;99.90;;;;;;503058;236;27462;-75
2021/12/15 04:40:06;;;;;;;2.80;2.60;;;2.50;99.90;;;;;;503065;236;27974;-75
2021/12/15 04:42:07;;;;;;;3.00;2.62;;;2.40;99.90;;;;;;503060;236;27955;-75
2021/12/15 04:44:10;;;;;;;3.33;3.08;;;2.40;99.90;;;;;;503055;236;27967;-75
2021/12/15 04:46:09;;;;;;;3.05;2.85;;;2.30;99.90;;;;;;502956;236;27513;-75
2021/12/15 04:48:11;;;;;;;3.20;2.90;;;2.30;99.90;;;;;;503100;236;27509;-75
2021/12/15 04:50:12;;;;;;;3.17;2.85;;;2.30;99.90;;;;;;503066;236;27512;-76
2021/12/15 04:52:13;;;;;;;2.60;2.40;;;2.30;99.90;;;;;;503083;236;27476;-75
2021/12/15 04:54:14;;;;;;;3.15;2.85;;;2.20;99.90;;;;;;503087;236;27470;-75
2021/12/15 04:56:16;;;;;;;2.97;2.75;;;2.10;99.90;;;;;;503081;236;27830;-75
2021/12/15 04:58:17;;;;;;;2.90;2.70;;;2.10;99.90;;;;;;503109;236;27434;-75
2021/12/15 05:00:18;;;;;;;2.65;2.45;;;2.10;99.90;;;;;;503084;236;27473;-75
2021/12/15 05:02:19;;;;;;;2.80;2.60;;;2.10;99.90;;;;;;503092;236;27525;-75
2021/12/15 05:04:21;;;;;;;2.30;2.20;;;2.10;99.90;;;;;;503064;236;27527;-75
2021/12/15 05:06:22;;;;;;;2.78;2.60;;;2.00;99.90;;;;;;503058;236;27481;-75
2021/12/15 05:08:23;;;;;;;3.00;2.80;;;2.00;99.90;;;;;;503075;236;27989;-76
2021/12/15 05:10:25;;;;;;;2.35;2.25;;;2.00;99.90;;;;;;503093;236;27930;-76
2021/12/15 05:12:26;;;;;;;3.20;2.72;;;2.00;99.90;;;;;;503030;236;27966;-76
2021/12/15 05:14:27;;;;;;;3.33;2.97;;;2.00;99.90;;;;;;503064;236;28060;-75
2021/12/15 05:16:28;;;;;;;3.10;2.83;;;2.00;99.90;;;;;;503075;236;27497;-75
2021/12/15 05:18:29;;;;;;;3.97;3.40;;;2.10;99.90;;;;;;503059;236;27454;-75
2021/12/15 05:20:33;;;;;;;3.60;3.30;;;2.10;99.90;;;;;;503068;236;27581;-75
2021/12/15 05:22:32;;;;;;;3.35;3.05;;;2.00;99.90;;;;;;502925;236;27447;-75
2021/12/15 05:24:34;;;;;;;3.30;3.00;;;1.90;99.90;;;;;;503063;236;27478;-75
2021/12/15 05:26:34;;;;;;;3.45;3.15;;;1.80;99.90;;;;;;503052;236;27487;-75
2021/12/15 05:28:36;;;;;;;3.78;3.15;;;1.80;99.90;;;;;;503104;236;27447;-75
2021/12/15 05:30:37;;;;;;;3.10;2.83;;;1.80;99.90;;;;;;503115;236;27505;-75
2021/12/15 05:32:38;;;;;;;3.55;3.25;;;1.80;99.90;;;;;;503102;236;27506;-75
2021/12/15 05:34:39;;;;;;;3.10;2.80;;;1.90;99.90;;;;;;503069;236;27554;-76
2021/12/15 05:36:42;;;;;;;4.07;3.67;;;1.90;99.90;;;;;;503062;236;28973;-75
2021/12/15 05:38:42;;;;;;;2.90;2.70;;;2.00;99.90;;;;;;503013;236;27894;-75
2021/12/15 05:40:43;;;;;;;3.37;2.87;;;2.10;99.90;;;;;;503091;236;27940;-75
2021/12/15 05:42:44;;;;;;;4.22;3.08;;;2.10;99.90;;;;;;503066;236;27992;-75
2021/12/15 05:44:46;;;;;;;3.50;3.20;;;2.10;99.90;;;;;;503066;236;27554;-75
2021/12/15 05:46:47;;;;;;;3.30;3.00;;;2.20;99.90;;;;;;503058;236;27478;-75
2021/12/15 05:48:48;;;;;;;5.00;3.55;;;2.20;99.90;;;;;;503091;236;27460;-75
2021/12/15 05:50:49;;;;;;;4.35;3.25;;;2.20;99.90;;;;;;503074;236;27469;-75
2021/12/15 05:52:51;;;;;;;3.35;3.05;;;2.30;99.90;;;;;;503075;236;27485;-75
2021/12/15 05:54:52;;;;;;;3.80;3.40;;;2.20;99.90;;;;;;503065;236;27487;-75
2021/12/15 05:56:53;;;;;;;3.47;3.17;;;2.20;99.90;;;;;;503115;236;27929;-75
2021/12/15 05:58:54;;;;;;;3.67;3.30;;;2.30;99.90;;;;;;502898;236;27516;-75
2021/12/15 06:00:56;;;;;;;4.32;3.92;;;2.30;99.90;;;;;;503083;236;27614;-75
2021/12/15 06:02:57;;;;;;;3.60;3.30;;;2.40;99.90;;;;;;503049;236;27434;-75
2021/12/15 06:04:58;;;;;;;3.35;3.05;;;2.40;99.90;;;;;;503041;236;27942;-77
2021/12/15 06:06:59;;;;;;;3.50;3.17;;;2.50;99.90;;;;;;503073;236;28106;-75
2021/12/15 06:09:01;;;;;;;3.33;3.03;;;2.60;99.90;;;;;;503020;236;29058;-76
2021/12/15 06:11:02;;;;;;;3.85;3.45;;;2.60;99.90;;;;;;502994;236;27971;-76
2021/12/15 06:13:03;;;;;;;3.78;3.40;;;2.60;99.90;;;;;;502960;236;27528;-75
2021/12/15 06:15:04;;;;;;;4.18;3.30;;;2.70;99.90;;;;;;503012;236;27477;-76
2021/12/15 06:17:06;;;;;;;3.78;3.33;;;2.70;99.90;;;;;;503035;236;27504;-75
2021/12/15 06:19:07;;;;;;;3.80;3.40;;;2.70;99.90;;;;;;503021;236;27432;-76
2021/12/15 06:21:08;;;;;;;3.70;3.12;;;2.60;99.90;;;;;;503044;236;27571;-76
2021/12/15 06:23:15;;;;;;;3.67;3.37;;;2.50;99.90;;;;;;503035;236;27549;-76
2021/12/15 06:25:11;;;;;;;3.97;3.47;;;2.60;99.90;;;;;;502490;236;27522;-75
2021/12/15 06:27:18;;;;;;;4.78;3.60;;;2.60;99.90;;;;;;503070;236;27872;-75
2021/12/15 06:29:13;;;;;;;4.72;4.00;;;2.60;99.90;;;;;;502624;236;27447;-75
2021/12/15 06:31:15;;;;;;;4.03;3.58;;;2.70;99.90;;;;;;503062;236;27466;-76
2021/12/15 06:33:16;;;;;;;3.60;3.30;;;2.70;99.90;;;;;;503048;236;27888;-75
2021/12/15 06:35:17;;;;;;;3.60;3.30;;;2.80;99.90;;;;;;503058;236;28037;-75
2021/12/15 06:37:18;;;;;;;3.80;3.50;;;2.80;99.90;;;;;;503057;236;27980;-76
2021/12/15 06:39:20;;;;;;;4.18;3.60;;;2.90;99.90;;;;;;503063;236;27904;-76
2021/12/15 06:41:21;;;;;;;4.05;3.33;;;2.90;99.90;;;;;;503058;236;27483;-76
2021/12/15 06:43:22;;;;;;;4.55;3.85;;;2.90;99.90;;;;;;503036;236;27454;-75
2021/12/15 06:45:31;;;;;;;4.18;3.78;;;2.90;99.90;;;;;;503041;236;27568;-75
2021/12/15 06:57:14;;;;;;;4.78;4.28;;;2.90;99.90;;;;;;502432;236;27490;-75
2021/12/15 06:58:44;;;;;;;5.30;4.28;;;3.10;99.90;;;;;;503004;236;27446;-75
2021/12/15 07:00:45;;;;;;;5.20;4.55;;;3.00;99.90;;;;;;503090;236;27607;-75
2021/12/15 07:02:46;;;;;;;5.53;4.43;;;3.00;99.90;;;;;;503060;236;27438;-74
2021/12/15 07:04:48;;;;;;;4.47;4.07;;;3.00;99.90;;;;;;503063;236;27940;-75
2021/12/15 07:06:49;;;;;;;5.55;4.05;;;3.00;99.90;;;;;;503071;236;28010;-74
2021/12/15 07:08:50;;;;;;;6.05;4.18;;;3.10;99.90;;;;;;503060;236;27969;-74
2021/12/15 07:10:51;;;;;;;4.25;3.85;;;3.10;99.90;;;;;;503034;236;27983;-74
2021/12/15 07:12:53;;;;;;;4.43;3.60;;;3.10;99.90;;;;;;503037;236;27600;-74
2021/12/15 07:14:54;;;;;;;6.50;4.40;;;3.10;99.90;;;;;;503045;236;27462;-75
2021/12/15 07:16:57;;;;;;;4.32;3.87;;;3.20;99.90;;;;;;503074;236;27508;-75
2021/12/15 07:19:09;;;;;;;5.05;4.15;;;3.30;99.90;;;;;;502921;236;27447;-74
2021/12/15 07:21:09;;;;;;;5.37;4.82;;;3.40;99.90;;;;;;502732;236;27907;-75
2021/12/15 07:23:08;;;;;;;6.37;4.75;;;3.40;99.90;;;;;;502921;236;28002;-74
2021/12/15 07:25:09;;;;;;;7.12;5.37;;;3.50;99.90;;;;;;503109;236;27650;-74
2021/12/15 07:27:11;;;;;;;6.82;5.47;;;3.60;99.90;;;;;;503105;236;27427;-75
2021/12/15 07:29:12;;;;;;;6.60;5.20;;;3.70;99.90;;;;;;503082;236;27477;-74
2021/12/15 07:31:13;;;;;;;8.02;5.47;;;3.70;99.90;;;;;;503050;236;27524;-74
2021/12/15 07:33:14;;;;;;;6.30;4.78;;;3.80;99.90;;;;;;503072;236;27538;-74
2021/12/15 07:35:16;;;;;;;6.53;5.32;;;3.80;99.90;;;;;;503091;236;27532;-75
2021/12/15 07:37:17;;;;;;;5.90;5.25;;;3.80;99.90;;;;;;503066;236;27461;-75
2021/12/15 07:39:18;;;;;;;6.85;4.95;;;3.80;99.90;;;;;;503081;236;27560;-74
2021/12/15 07:41:30;;;;;;;6.25;4.78;;;3.80;99.90;;;;;;503069;236;27499;-75
2021/12/15 07:43:26;;;;;;;6.72;5.30;;;3.90;99.90;;;;;;502670;236;27498;-74
2021/12/15 07:45:28;;;;;;;6.87;5.22;;;3.90;99.90;;;;;;503011;236;28118;-75
2021/12/15 07:47:29;;;;;;;7.37;4.80;;;4.00;99.90;;;;;;503083;236;27874;-74
2021/12/15 07:49:30;;;;;;;6.45;5.35;;;4.00;99.90;;;;;;502794;236;27934;-74
2021/12/15 07:51:31;;;;;;;7.97;5.22;;;4.10;99.90;;;;;;502878;236;27959;-74
2021/12/15 07:53:33;;;;;;;7.93;4.90;;;4.10;99.90;;;;;;502715;236;27985;-74
2021/12/15 07:55:34;;;;;;;7.07;5.28;;;4.20;99.90;;;;;;502870;236;27568;-74
2021/12/15 07:57:37;;;;;;;7.72;5.75;;;4.30;99.90;;;;;;503065;236;27466;-74
2021/12/15 07:59:36;;;;;;;8.80;5.80;;;4.30;99.90;;;;;;502958;236;27561;-74
2021/12/15 08:01:38;;;;;;;11.07;5.93;;;4.40;99.90;;;;;;503036;236;27434;-74
2021/12/15 08:03:39;;;;;;;6.90;5.05;;;4.40;99.90;;;;;;503051;236;27478;-74
2021/12/15 08:05:40;;;;;;;6.97;5.53;;;4.40;99.90;;;;;;503067;236;27602;-74
2021/12/15 08:07:41;;;;;;;8.95;6.18;;;4.40;99.90;;;;;;503038;236;27567;-74
2021/12/15 08:09:44;;;;;;;9.27;5.87;;;4.50;99.90;;;;;;503061;236;27481;-74
2021/12/15 08:11:44;;;;;;;8.38;5.60;;;4.50;99.90;;;;;;502965;236;27425;-74
2021/12/15 08:13:45;;;;;;;8.60;5.47;;;4.50;99.90;;;;;;503074;236;28011;-74
2021/12/15 08:15:46;;;;;;;11.75;6.15;;;4.50;99.90;;;;;;503077;236;27975;-75
2021/12/15 08:17:51;;;;;;;10.63;6.10;;;4.50;99.90;;;;;;503059;236;27467;-74
2021/12/15 08:19:49;;;;;;;8.55;5.93;;;4.60;99.90;;;;;;502847;236;27481;-74
2021/12/15 08:21:50;;;;;;;8.52;6.00;;;4.60;99.90;;;;;;503060;236;27496;-74
2021/12/15 08:23:51;;;;;;;9.10;6.30;;;4.60;99.90;;;;;;503086;236;27566;-74
2021/12/15 08:25:53;;;;;;;7.35;5.53;;;4.60;99.90;;;;;;503104;236;27509;-74
2021/12/15 08:27:54;;;;;;;7.68;5.57;;;4.60;99.90;;;;;;503054;236;27549;-74
2021/12/15 08:29:55;;;;;;;7.97;6.35;;;4.70;99.90;;;;;;503040;236;27474;-75
2021/12/15 08:31:56;;;;;;;9.20;6.07;;;4.80;99.90;;;;;;503056;236;28073;-74
2021/12/15 08:33:58;;;;;;;6.85;5.62;;;4.80;99.90;;;;;;503104;236;27886;-74
2021/12/15 08:35:59;;;;;;;7.70;5.47;;;4.80;99.90;;;;;;503075;236;28021;-73
2021/12/15 08:38:00;;;;;;;8.10;5.90;;;4.80;99.90;;;;;;503058;236;27908;-73
2021/12/15 08:40:01;;;;;;;9.75;6.10;;;4.90;99.90;;;;;;503068;236;27581;-74
2021/12/15 08:42:03;;;;;;;8.30;5.75;;;4.90;99.90;;;;;;503112;236;27604;-75
2021/12/15 08:44:08;;;;;;;7.70;5.60;;;4.90;99.90;;;;;;503068;236;27539;-75
2021/12/15 08:46:08;;;;;;;8.35;6.05;;;5.00;99.90;;;;;;502862;236;27542;-74
2021/12/15 08:48:09;;;;;;;6.60;5.50;;;5.00;99.90;;;;;;503078;236;27504;-75
2021/12/15 08:50:10;;;;;;;9.20;6.90;;;5.10;99.90;;;;;;503079;236;27525;-74
2021/12/15 08:52:12;;;;;;;8.50;6.30;;;5.10;99.90;;;;;;503057;236;28012;-74
2021/12/15 08:54:14;;;;;;;11.52;8.00;;;5.10;99.90;;;;;;503086;236;28033;-74
2021/12/15 08:56:14;;;;;;;13.15;7.35;;;5.20;99.90;;;;;;503021;236;27453;-74
2021/12/15 08:58:15;;;;;;;10.60;7.35;;;5.20;99.90;;;;;;503054;236;27520;-75
2021/12/15 09:00:17;;;;;;;9.68;7.30;;;5.30;99.90;;;;;;503061;236;27545;-74
2021/12/15 09:02:18;;;;;;;8.55;6.50;;;5.30;99.90;;;;;;503028;236;27493;-74
2021/12/15 09:04:20;;;;;;;10.52;7.12;;;5.30;99.90;;;;;;503089;236;27501;-74
2021/12/15 09:06:22;;;;;;;12.63;7.80;;;5.40;99.90;;;;;;503063;236;27512;-75
2021/12/15 09:08:23;;;;;;;11.02;7.30;;;5.40;99.90;;;;;;503072;236;27841;-74
2021/12/15 09:10:24;;;;;;;10.77;8.13;;;5.40;99.90;;;;;;503037;236;27949;-74
2021/12/15 09:12:25;;;;;;;13.38;9.38;;;5.40;99.90;;;;;;503087;236;27556;-76
2021/12/15 09:14:27;;;;;;;11.68;8.63;;;5.40;99.90;;;;;;503059;236;27443;-74
2021/12/15 09:16:30;;;;;;;12.43;8.60;;;5.50;99.90;;;;;;503074;236;27473;-74
2021/12/15 09:18:29;;;;;;;12.07;8.65;;;5.50;99.90;;;;;;502930;236;27446;-75
2021/12/15 09:20:30;;;;;;;11.10;7.68;;;5.60;99.90;;;;;;503097;236;27586;-75
2021/12/15 09:22:32;;;;;;;11.85;8.20;;;5.60;99.90;;;;;;503074;236;27604;-75
2021/12/15 09:24:33;;;;;;;11.55;8.30;;;5.60;99.90;;;;;;503077;236;27885;-75
2021/12/15 09:26:34;;;;;;;11.70;8.60;;;5.60;99.90;;;;;;503047;236;27939;-75
2021/12/15 09:28:35;;;;;;;11.93;8.18;;;5.70;99.90;;;;;;503054;236;27474;-74
2021/12/15 09:30:43;;;;;;;9.38;7.25;;;5.70;99.90;;;;;;503101;236;27428;-75
2021/12/15 09:32:38;;;;;;;12.02;8.45;;;5.70;99.90;;;;;;502553;236;27489;-74
2021/12/15 09:34:39;;;;;;;10.68;7.80;;;5.80;99.90;;;;;;503071;236;27458;-75
2021/12/15 09:36:40;;;;;;;11.15;7.68;;;5.80;99.90;;;;;;503068;236;27467;-74
2021/12/15 09:38:42;;;;;;;14.02;8.52;;;5.80;99.90;;;;;;503049;236;28678;-75
2021/12/15 09:40:43;;;;;;;15.10;10.02;;;5.80;99.90;;;;;;503083;236;27888;-74
2021/12/15 09:42:44;;;;;;;12.98;9.05;;;5.80;99.90;;;;;;503057;236;27577;-75
2021/12/15 09:44:47;;;;;;;14.82;9.95;;;5.90;99.90;;;;;;503069;236;27449;-74
2021/12/15 10:02:44;;;;;;;9.68;7.50;;;6.20;99.90;;;;;;503055;236;27457;-74
2021/12/15 10:05:00;;;;;;;9.00;7.25;;;6.20;99.90;;;;;;502391;236;27529;-74
2021/12/15 10:07:04;;;;;;;8.85;7.07;;;6.20;99.90;;;;;;501948;236;27907;-74
2021/12/15 10:18:11;;;;;;;7.57;5.93;;;6.50;99.90;;;;;;503072;236;27516;-74
2021/12/15 10:20:08;;;;;;;5.80;5.00;;;6.50;99.90;;;;;;502778;236;27541;-74
2021/12/15 10:22:11;;;;;;;7.95;5.15;;;6.50;99.90;;;;;;503074;236;28834;-74
2021/12/15 10:24:13;;;;;;;5.05;4.55;;;6.60;99.90;;;;;;502985;236;27433;-76
2021/12/15 10:26:12;;;;;;;5.93;4.90;;;6.60;99.90;;;;;;502961;236;27958;-76
2021/12/15 10:28:13;;;;;;;6.60;5.00;;;6.60;99.90;;;;;;503078;236;27578;-76
2021/12/15 10:30:14;;;;;;;4.45;4.03;;;6.60;99.90;;;;;;503086;236;27450;-76
2021/12/15 10:32:16;;;;;;;5.82;4.62;;;6.60;99.90;;;;;;503078;236;27459;-76
2021/12/15 10:34:17;;;;;;;4.50;4.05;;;6.60;99.90;;;;;;503073;236;27532;-76
2021/12/15 10:36:18;;;;;;;4.10;3.70;;;6.60;99.90;;;;;;503102;236;27434;-76
2021/12/15 10:38:20;;;;;;;4.45;4.05;;;6.70;99.90;;;;;;503068;236;28900;-76
2021/12/15 10:40:21;;;;;;;4.55;4.00;;;6.60;99.90;;;;;;503101;236;28025;-76
2021/12/15 10:42:22;;;;;;;6.45;3.92;;;6.60;99.90;;;;;;503086;236;27980;-76
2021/12/15 10:44:24;;;;;;;4.25;3.80;;;6.60;99.90;;;;;;503079;236;27501;-76
2021/12/15 10:46:24;;;;;;;3.90;3.60;;;6.70;99.90;;;;;;503106;236;27450;-76
2021/12/15 10:48:36;;;;;;;3.87;3.55;;;6.70;99.90;;;;;;503097;236;28834;-76
2021/12/15 10:50:36;;;;;;;3.92;3.50;;;6.80;99.90;;;;;;503018;236;28038;-76
2021/12/15 10:52:37;;;;;;;4.70;3.78;;;6.80;99.90;;;;;;503083;236;28036;-76
2021/12/15 10:54:40;;;;;;;4.80;3.30;;;6.80;99.90;;;;;;503120;236;27438;-75
2021/12/15 10:56:40;;;;;;;4.35;3.20;;;6.90;99.90;;;;;;503009;236;28263;-76
2021/12/15 10:58:41;;;;;;;3.30;3.00;;;6.90;99.90;;;;;;503075;236;27430;-76
2021/12/15 11:00:42;;;;;;;3.27;2.77;;;6.90;99.90;;;;;;503101;236;27562;-76
2021/12/15 11:02:44;;;;;;;3.60;3.25;;;6.90;99.90;;;;;;503119;236;28394;-75
2021/12/15 11:04:45;;;;;;;3.40;3.10;;;6.80;99.90;;;;;;503127;236;27455;-76
2021/12/15 11:06:46;;;;;;;3.80;3.50;;;6.80;99.90;;;;;;503116;236;28094;-76
2021/12/15 11:08:47;;;;;;;3.37;3.07;;;6.80;99.90;;;;;;503101;236;27885;-76
2021/12/15 11:10:51;;;;;;;4.43;4.00;;;6.80;99.90;;;;;;503106;236;28715;-76
2021/12/15 11:12:50;;;;;;;4.23;3.83;;;6.90;99.90;;;;;;502994;236;29287;-76
2021/12/15 11:14:51;;;;;;;4.73;4.13;;;7.00;99.90;;;;;;503150;236;28451;-76
2021/12/15 11:16:52;;;;;;;5.20;4.35;;;7.00;99.90;;;;;;503122;236;28416;-76
2021/12/15 11:18:54;;;;;;;4.37;3.70;;;6.90;99.90;;;;;;503111;236;27452;-76
2021/12/15 11:20:55;;;;;;;5.23;4.23;;;6.90;99.90;;;;;;503117;236;28171;-76
2021/12/15 11:22:57;;;;;;;5.30;4.10;;;6.80;99.90;;;;;;503091;236;28494;-76
2021/12/15 11:24:57;;;;;;;4.13;3.60;;;6.80;99.90;;;;;;503095;236;27474;-76
2021/12/15 11:26:59;;;;;;;3.60;3.30;;;6.80;99.90;;;;;;503084;236;27922;-76
2021/12/15 11:29:00;;;;;;;4.03;3.43;;;6.80;99.90;;;;;;503083;236;28288;-76
2021/12/15 11:31:01;;;;;;;3.53;3.22;;;6.90;99.90;;;;;;503102;236;28150;-76
2021/12/15 11:33:02;;;;;;;4.10;3.67;;;6.90;99.90;;;;;;503082;236;27653;-76
2021/12/15 11:35:04;;;;;;;3.03;2.73;;;6.90;99.90;;;;;;503118;236;27954;-76
2021/12/15 11:37:05;;;;;;;3.00;2.80;;;6.90;99.90;;;;;;503111;236;29226;-76
2021/12/15 11:39:06;;;;;;;3.27;3.07;;;6.90;99.90;;;;;;503130;236;28613;-76
2021/12/15 11:41:07;;;;;;;3.20;2.90;;;7.00;99.90;;;;;;503149;236;28465;-76
2021/12/15 11:43:09;;;;;;;2.95;2.75;;;7.00;99.90;;;;;;503119;236;29283;-76
2021/12/15 11:45:10;;;;;;;3.27;2.97;;;7.10;99.90;;;;;;503125;236;27439;-76
2021/12/15 11:47:11;;;;;;;3.60;2.80;;;7.10;99.90;;;;;;503134;236;28068;-76